sensor_id;sensor_type;location;lat;lon;timestamp;pressure;altitude;pressure_sealevel;temperature;humidity
62617;BME280;62539;51.190;6.808;2023-04-26T00:01:16;101586.91;;;18.99;52.20
62617;BME280;62539;51.190;6.808;2023-04-26T00:03:42;101590.44;;;18.98;52.45
62617;BME280;62539;51.190;6.808;2023-04-26T00:06:07;101595.75;;;18.97;52.47
62617;BME280;62539;51.190;6.808;2023-04-26T00:08:34;101593.09;;;18.97;52.38
62617;BME280;62539;51.190;6.808;2023-04-26T00:11:00;101592.19;;;18.96;52.57
62617;BME280;62539;51.190;6.808;2023-04-26T00:13:26;101593.16;;;18.93;52.28
62617;BME280;62539;51.190;6.808;2023-04-26T00:15:51;101591.44;;;18.91;52.47
62617;BME280;62539;51.190;6.808;2023-04-26T00:18:17;101589.72;;;18.90;52.55
62617;BME280;62539;51.190;6.808;2023-04-26T00:20:42;101590.59;;;18.89;52.59
62617;BME280;62539;51.190;6.808;2023-04-26T00:23:08;101590.66;;;18.87;52.46
62617;BME280;62539;51.190;6.808;2023-04-26T00:25:35;101581.88;;;18.87;52.61
62617;BME280;62539;51.190;6.808;2023-04-26T00:28:01;101592.41;;;18.87;52.69
62617;BME280;62539;51.190;6.808;2023-04-26T00:30:27;101588.03;;;18.86;52.53
62617;BME280;62539;51.190;6.808;2023-04-26T00:32:53;101581.13;;;18.83;52.79
62617;BME280;62539;51.190;6.808;2023-04-26T00:35:19;101577.66;;;18.81;52.81
62617;BME280;62539;51.190;6.808;2023-04-26T00:37:45;101571.50;;;18.80;52.68
62617;BME280;62539;51.190;6.808;2023-04-26T00:40:11;101570.66;;;18.80;52.77
62617;BME280;62539;51.190;6.808;2023-04-26T00:42:40;101578.56;;;18.78;52.77
62617;BME280;62539;51.190;6.808;2023-04-26T00:45:06;101575.13;;;18.76;52.99
62617;BME280;62539;51.190;6.808;2023-04-26T00:47:32;101575.13;;;18.76;52.93
62617;BME280;62539;51.190;6.808;2023-04-26T00:50:00;101572.47;;;18.76;52.95
62617;BME280;62539;51.190;6.808;2023-04-26T00:52:26;101571.63;;;18.76;52.97
62617;BME280;62539;51.190;6.808;2023-04-26T00:54:53;101569.94;;;18.73;52.74
62617;BME280;62539;51.190;6.808;2023-04-26T00:57:20;101568.19;;;18.74;53.04
62617;BME280;62539;51.190;6.808;2023-04-26T00:59:46;101574.34;;;18.73;53.07
62617;BME280;62539;51.190;6.808;2023-04-26T01:02:11;101569.09;;;18.71;53.04
62617;BME280;62539;51.190;6.808;2023-04-26T01:04:37;101574.41;;;18.70;52.82
62617;BME280;62539;51.190;6.808;2023-04-26T01:07:04;101576.19;;;18.68;52.92
62617;BME280;62539;51.190;6.808;2023-04-26T01:09:30;101570.94;;;18.68;52.85
62617;BME280;62539;51.190;6.808;2023-04-26T01:11:56;101573.59;;;18.66;52.85
62617;BME280;62539;51.190;6.808;2023-04-26T01:14:23;101584.09;;;18.66;52.97
62617;BME280;62539;51.190;6.808;2023-04-26T01:16:49;101585.06;;;18.63;53.17
62617;BME280;62539;51.190;6.808;2023-04-26T01:19:16;101585.06;;;18.62;53.03
62617;BME280;62539;51.190;6.808;2023-04-26T01:21:42;101585.13;;;18.60;53.15
62617;BME280;62539;51.190;6.808;2023-04-26T01:24:09;101579.88;;;18.59;53.19
62617;BME280;62539;51.190;6.808;2023-04-26T01:26:36;101584.31;;;18.57;53.32
62617;BME280;62539;51.190;6.808;2023-04-26T01:29:16;101578.19;;;18.56;53.36
62617;BME280;62539;51.190;6.808;2023-04-26T01:31:43;101585.25;;;18.54;53.13
62617;BME280;62539;51.190;6.808;2023-04-26T01:34:09;101581.78;;;18.52;53.24
62617;BME280;62539;51.190;6.808;2023-04-26T01:36:35;101581.84;;;18.50;53.25
62617;BME280;62539;51.190;6.808;2023-04-26T01:39:00;101578.34;;;18.50;53.50
62617;BME280;62539;51.190;6.808;2023-04-26T01:41:26;101583.63;;;18.48;53.14
62617;BME280;62539;51.190;6.808;2023-04-26T01:43:51;101586.28;;;18.47;53.54
62617;BME280;62539;51.190;6.808;2023-04-26T01:46:17;101580.16;;;18.46;53.57
62617;BME280;62539;51.190;6.808;2023-04-26T01:48:43;101581.06;;;18.45;53.46
62617;BME280;62539;51.190;6.808;2023-04-26T01:51:09;101577.63;;;18.43;53.31
62617;BME280;62539;51.190;6.808;2023-04-26T01:53:34;101573.28;;;18.41;53.60
62617;BME280;62539;51.190;6.808;2023-04-26T01:56:00;101575.06;;;18.40;53.55
62617;BME280;62539;51.190;6.808;2023-04-26T01:58:27;101579.47;;;18.38;53.51
62617;BME280;62539;51.190;6.808;2023-04-26T02:00:53;101577.75;;;18.37;53.72
62617;BME280;62539;51.190;6.808;2023-04-26T02:03:19;101573.41;;;18.34;53.47
62617;BME280;62539;51.190;6.808;2023-04-26T02:05:45;101577.81;;;18.32;53.52
62617;BME280;62539;51.190;6.808;2023-04-26T02:08:11;101575.25;;;18.31;53.57
62617;BME280;62539;51.190;6.808;2023-04-26T02:10:36;101577.88;;;18.31;53.70
62617;BME280;62539;51.190;6.808;2023-04-26T02:13:02;101585.75;;;18.29;53.67
62617;BME280;62539;51.190;6.808;2023-04-26T02:15:28;101578.81;;;18.27;53.74
62617;BME280;62539;51.190;6.808;2023-04-26T02:17:53;101591.97;;;18.27;53.65
62617;BME280;62539;51.190;6.808;2023-04-26T02:20:19;101587.63;;;18.24;53.61
62617;BME280;62539;51.190;6.808;2023-04-26T02:22:45;101585.03;;;18.23;53.72
62617;BME280;62539;51.190;6.808;2023-04-26T02:25:11;101589.47;;;18.20;53.71
62617;BME280;62539;51.190;6.808;2023-04-26T02:27:36;101583.38;;;18.18;53.96
62617;BME280;62539;51.190;6.808;2023-04-26T02:30:02;101586.88;;;18.17;53.97
62617;BME280;62539;51.190;6.808;2023-04-26T02:32:28;101588.69;;;18.15;53.61
62617;BME280;62539;51.190;6.808;2023-04-26T02:34:54;101582.59;;;18.13;53.72
62617;BME280;62539;51.190;6.808;2023-04-26T02:37:20;101579.09;;;18.13;53.86
62617;BME280;62539;51.190;6.808;2023-04-26T02:39:49;101577.34;;;18.12;53.99
62617;BME280;62539;51.190;6.808;2023-04-26T02:42:17;101571.28;;;18.10;53.74
62617;BME280;62539;51.190;6.808;2023-04-26T02:44:42;101568.69;;;18.08;53.94
62617;BME280;62539;51.190;6.808;2023-04-26T02:47:08;101574.84;;;18.07;53.92
62617;BME280;62539;51.190;6.808;2023-04-26T02:49:35;101570.47;;;18.06;53.97
62617;BME280;62539;51.190;6.808;2023-04-26T02:52:00;101572.28;;;18.04;53.91
62617;BME280;62539;51.190;6.808;2023-04-26T02:54:26;101578.41;;;18.03;53.84
62617;BME280;62539;51.190;6.808;2023-04-26T02:56:51;101580.22;;;18.01;53.99
62617;BME280;62539;51.190;6.808;2023-04-26T02:59:16;101568.84;;;17.99;54.10
62617;BME280;62539;51.190;6.808;2023-04-26T03:01:42;101571.47;;;17.99;54.21
62617;BME280;62539;51.190;6.808;2023-04-26T03:04:07;101568.84;;;17.97;54.16
62617;BME280;62539;51.190;6.808;2023-04-26T03:06:33;101560.13;;;17.95;54.16
62617;BME280;62539;51.190;6.808;2023-04-26T03:08:59;101575.88;;;17.95;54.17
62617;BME280;62539;51.190;6.808;2023-04-26T03:11:25;101562.81;;;17.93;54.06
62617;BME280;62539;51.190;6.808;2023-04-26T03:13:50;101566.34;;;17.92;54.31
62617;BME280;62539;51.190;6.808;2023-04-26T03:16:18;101567.22;;;17.91;54.19
62617;BME280;62539;51.190;6.808;2023-04-26T03:18:45;101568.13;;;17.89;54.19
62617;BME280;62539;51.190;6.808;2023-04-26T03:21:10;101563.81;;;17.86;54.30
62617;BME280;62539;51.190;6.808;2023-04-26T03:23:37;101555.94;;;17.86;54.09
62617;BME280;62539;51.190;6.808;2023-04-26T03:26:02;101565.56;;;17.86;54.22
62617;BME280;62539;51.190;6.808;2023-04-26T03:28:28;101562.09;;;17.84;54.14
62617;BME280;62539;51.190;6.808;2023-04-26T03:30:53;101558.63;;;17.83;54.27
62617;BME280;62539;51.190;6.808;2023-04-26T03:33:19;101549.91;;;17.81;54.06
62617;BME280;62539;51.190;6.808;2023-04-26T03:35:44;101555.16;;;17.81;54.06
62617;BME280;62539;51.190;6.808;2023-04-26T03:38:10;101547.25;;;17.84;53.68
62617;BME280;62539;51.190;6.808;2023-04-26T03:40:35;101553.25;;;17.89;53.47
62617;BME280;62539;51.190;6.808;2023-04-26T03:43:01;101547.84;;;17.97;53.59
62617;BME280;62539;51.190;6.808;2023-04-26T03:45:26;101559.16;;;18.04;53.95
62617;BME280;62539;51.190;6.808;2023-04-26T03:47:51;101548.53;;;18.10;54.24
62617;BME280;62539;51.190;6.808;2023-04-26T03:50:17;101555.38;;;18.17;54.52
62617;BME280;62539;51.190;6.808;2023-04-26T03:52:42;101557.88;;;18.24;54.63
62617;BME280;62539;51.190;6.808;2023-04-26T03:55:08;101553.34;;;18.30;54.80
62617;BME280;62539;51.190;6.808;2023-04-26T03:57:36;101556.72;;;18.37;54.88
62617;BME280;62539;51.190;6.808;2023-04-26T04:00:02;101554.88;;;18.42;54.75
62617;BME280;62539;51.190;6.808;2023-04-26T04:02:34;101555.66;;;18.46;54.73
62617;BME280;62539;51.190;6.808;2023-04-26T04:05:00;101559.09;;;18.48;54.66
62617;BME280;62539;51.190;6.808;2023-04-26T04:07:25;101564.28;;;18.51;54.62
62617;BME280;62539;51.190;6.808;2023-04-26T04:09:50;101563.41;;;18.52;54.40
62617;BME280;62539;51.190;6.808;2023-04-26T04:12:16;101565.09;;;18.55;54.30
62617;BME280;62539;51.190;6.808;2023-04-26T04:14:41;101582.56;;;18.56;54.10
62617;BME280;62539;51.190;6.808;2023-04-26T04:17:07;101568.53;;;18.57;53.73
62617;BME280;62539;51.190;6.808;2023-04-26T04:19:32;101563.28;;;18.57;53.56
62617;BME280;62539;51.190;6.808;2023-04-26T04:21:57;101563.28;;;18.57;53.55
62617;BME280;62539;51.190;6.808;2023-04-26T04:24:23;101557.13;;;18.58;53.57
62617;BME280;62539;51.190;6.808;2023-04-26T04:26:49;101567.63;;;18.59;53.39
62617;BME280;62539;51.190;6.808;2023-04-26T04:29:15;101573.72;;;18.61;53.43
62617;BME280;62539;51.190;6.808;2023-04-26T04:31:40;101577.16;;;18.63;53.19
62617;BME280;62539;51.190;6.808;2023-04-26T04:34:06;101581.53;;;18.64;53.16
62617;BME280;62539;51.190;6.808;2023-04-26T04:36:32;101578.00;;;18.65;53.03
62617;BME280;62539;51.190;6.808;2023-04-26T04:38:58;101578.81;;;18.68;53.18
62617;BME280;62539;51.190;6.808;2023-04-26T04:41:23;101580.56;;;18.67;52.88
62617;BME280;62539;51.190;6.808;2023-04-26T04:43:49;101578.78;;;18.69;53.01
62617;BME280;62539;51.190;6.808;2023-04-26T04:46:15;101585.75;;;18.70;52.94
62617;BME280;62539;51.190;6.808;2023-04-26T04:48:40;101589.22;;;18.72;52.96
62617;BME280;62539;51.190;6.808;2023-04-26T04:51:07;101591.84;;;18.74;52.88
62617;BME280;62539;51.190;6.808;2023-04-26T04:53:33;101590.88;;;18.76;53.08
62617;BME280;62539;51.190;6.808;2023-04-26T04:55:58;101577.66;;;18.79;52.97
62617;BME280;62539;51.190;6.808;2023-04-26T04:58:24;101581.19;;;18.78;52.34
62617;BME280;62539;51.190;6.808;2023-04-26T05:00:50;101588.25;;;18.78;52.01
62617;BME280;62539;51.190;6.808;2023-04-26T05:03:18;101580.38;;;18.76;51.99
62617;BME280;62539;51.190;6.808;2023-04-26T05:05:43;101586.50;;;18.77;51.88
62617;BME280;62539;51.190;6.808;2023-04-26T05:08:09;101589.13;;;18.77;51.94
62617;BME280;62539;51.190;6.808;2023-04-26T05:10:34;101600.44;;;18.80;51.93
62617;BME280;62539;51.190;6.808;2023-04-26T05:13:00;101595.16;;;18.82;51.76
62617;BME280;62539;51.190;6.808;2023-04-26T05:15:25;101596.88;;;18.83;51.71
62617;BME280;62539;51.190;6.808;2023-04-26T05:17:51;101610.84;;;18.85;52.07
62617;BME280;62539;51.190;6.808;2023-04-26T05:20:16;101603.81;;;18.87;51.99
62617;BME280;62539;51.190;6.808;2023-04-26T05:22:42;101605.53;;;18.88;52.22
62617;BME280;62539;51.190;6.808;2023-04-26T05:25:08;101608.09;;;18.90;52.12
62617;BME280;62539;51.190;6.808;2023-04-26T05:27:34;101608.03;;;18.93;52.25
62617;BME280;62539;51.190;6.808;2023-04-26T05:30:02;101621.13;;;18.96;52.18
62617;BME280;62539;51.190;6.808;2023-04-26T05:32:29;101618.50;;;18.98;52.06
62617;BME280;62539;51.190;6.808;2023-04-26T05:34:54;101628.97;;;18.99;51.97
62617;BME280;62539;51.190;6.808;2023-04-26T05:37:19;101626.31;;;19.01;52.11
62617;BME280;62539;51.190;6.808;2023-04-26T05:39:45;101627.16;;;19.01;52.05
62617;BME280;62539;51.190;6.808;2023-04-26T05:42:10;101630.63;;;19.03;52.21
62617;BME280;62539;51.190;6.808;2023-04-26T05:44:36;101633.25;;;19.05;52.28
62617;BME280;62539;51.190;6.808;2023-04-26T05:47:01;101626.28;;;19.02;48.16
62617;BME280;62539;51.190;6.808;2023-04-26T05:49:27;101617.78;;;18.89;45.87
62617;BME280;62539;51.190;6.808;2023-04-26T05:51:52;101624.28;;;18.73;44.21
62617;BME280;62539;51.190;6.808;2023-04-26T05:54:18;101629.88;;;18.56;43.00
62617;BME280;62539;51.190;6.808;2023-04-26T05:56:43;101627.53;;;18.43;42.97
62617;BME280;62539;51.190;6.808;2023-04-26T05:59:08;101630.16;;;18.43;43.85
62617;BME280;62539;51.190;6.808;2023-04-26T06:01:34;101635.25;;;18.51;44.23
62617;BME280;62539;51.190;6.808;2023-04-26T06:03:59;101628.91;;;18.61;44.11
62617;BME280;62539;51.190;6.808;2023-04-26T06:06:25;101635.69;;;18.72;44.32
62617;BME280;62539;51.190;6.808;2023-04-26T06:08:52;101640.75;;;18.79;44.83
62617;BME280;62539;51.190;6.808;2023-04-26T06:11:17;101641.47;;;18.88;44.81
62617;BME280;62539;51.190;6.808;2023-04-26T06:13:43;101637.78;;;18.95;45.13
62617;BME280;62539;51.190;6.808;2023-04-26T06:16:09;101638.56;;;19.02;45.44
62617;BME280;62539;51.190;6.808;2023-04-26T06:18:34;101647.22;;;19.07;45.96
62617;BME280;62539;51.190;6.808;2023-04-26T06:21:00;101640.09;;;19.12;46.09
62617;BME280;62539;51.190;6.808;2023-04-26T06:23:25;101650.53;;;19.15;46.26
62617;BME280;62539;51.190;6.808;2023-04-26T06:25:51;101647.78;;;19.20;46.40
62617;BME280;62539;51.190;6.808;2023-04-26T06:28:16;101655.59;;;19.23;46.60
62617;BME280;62539;51.190;6.808;2023-04-26T06:30:41;101662.53;;;19.27;46.84
62617;BME280;62539;51.190;6.808;2023-04-26T06:33:07;101664.25;;;19.30;46.91
62617;BME280;62539;51.190;6.808;2023-04-26T06:35:38;101657.19;;;19.32;46.79
62617;BME280;62539;51.190;6.808;2023-04-26T06:38:05;101659.72;;;19.35;46.67
62617;BME280;62539;51.190;6.808;2023-04-26T06:40:30;101657.94;;;19.37;46.75
62617;BME280;62539;51.190;6.808;2023-04-26T06:42:56;101653.44;;;19.41;46.84
62617;BME280;62539;51.190;6.808;2023-04-26T06:45:22;101652.47;;;19.45;47.11
62617;BME280;62539;51.190;6.808;2023-04-26T06:47:50;101654.13;;;19.49;47.29
62617;BME280;62539;51.190;6.808;2023-04-26T06:50:16;101646.16;;;19.52;46.63
62617;BME280;62539;51.190;6.808;2023-04-26T06:52:42;101654.84;;;19.56;46.71
62617;BME280;62539;51.190;6.808;2023-04-26T06:55:08;101651.31;;;19.57;46.98
62617;BME280;62539;51.190;6.808;2023-04-26T06:57:33;101645.97;;;19.60;46.97
62617;BME280;62539;51.190;6.808;2023-04-26T06:59:59;101652.06;;;19.62;46.68
62617;BME280;62539;51.190;6.808;2023-04-26T07:02:24;101652.84;;;19.65;46.58
62617;BME280;62539;51.190;6.808;2023-04-26T07:04:50;101657.13;;;19.69;46.74
62617;BME280;62539;51.190;6.808;2023-04-26T07:07:15;101655.28;;;19.73;46.74
62617;BME280;62539;51.190;6.808;2023-04-26T07:09:42;101661.38;;;19.75;46.92
62617;BME280;62539;51.190;6.808;2023-04-26T07:12:10;101665.66;;;19.79;46.86
62617;BME280;62539;51.190;6.808;2023-04-26T07:14:36;101661.22;;;19.81;46.97
62617;BME280;62539;51.190;6.808;2023-04-26T07:17:05;101656.78;;;19.83;46.68
62617;BME280;62539;51.190;6.808;2023-04-26T07:19:33;101654.09;;;19.85;46.80
62617;BME280;62539;51.190;6.808;2023-04-26T07:21:59;101655.81;;;19.88;46.86
62617;BME280;62539;51.190;6.808;2023-04-26T07:24:25;101658.41;;;19.89;47.09
62617;BME280;62539;51.190;6.808;2023-04-26T07:26:51;101657.50;;;19.90;47.13
62617;BME280;62539;51.190;6.808;2023-04-26T07:29:16;101652.25;;;19.90;46.72
62617;BME280;62539;51.190;6.808;2023-04-26T07:31:43;101660.06;;;19.93;47.22
62617;BME280;62539;51.190;6.808;2023-04-26T07:34:09;101657.41;;;19.95;47.57
62617;BME280;62539;51.190;6.808;2023-04-26T07:36:34;101662.59;;;19.98;48.13
62617;BME280;62539;51.190;6.808;2023-04-26T07:39:00;101657.25;;;20.01;47.88
62617;BME280;62539;51.190;6.808;2023-04-26T07:41:25;101658.91;;;20.04;48.00
62617;BME280;62539;51.190;6.808;2023-04-26T07:43:51;101654.44;;;20.07;48.15
62617;BME280;62539;51.190;6.808;2023-04-26T07:46:16;101663.13;;;20.11;48.18
62617;BME280;62539;51.190;6.808;2023-04-26T07:48:42;101664.75;;;20.15;47.94
62617;BME280;62539;51.190;6.808;2023-04-26T07:51:09;101660.28;;;20.19;48.13
62617;BME280;62539;51.190;6.808;2023-04-26T07:53:36;101649.66;;;20.22;48.14
62617;BME280;62539;51.190;6.808;2023-04-26T07:56:03;101649.56;;;20.25;48.11
62617;BME280;62539;51.190;6.808;2023-04-26T07:58:30;101651.25;;;20.27;48.33
62617;BME280;62539;51.190;6.808;2023-04-26T08:00:57;101659.97;;;20.30;48.28
62617;BME280;62539;51.190;6.808;2023-04-26T08:03:23;101651.13;;;20.32;47.96
62617;BME280;62539;51.190;6.808;2023-04-26T08:05:48;101654.59;;;20.34;47.46
62617;BME280;62539;51.190;6.808;2023-04-26T08:08:14;101646.63;;;20.36;47.01
62617;BME280;62539;51.190;6.808;2023-04-26T08:10:40;101644.88;;;20.36;47.14
62617;BME280;62539;51.190;6.808;2023-04-26T08:13:06;101643.97;;;20.37;47.27
62617;BME280;62539;51.190;6.808;2023-04-26T08:15:32;101649.19;;;20.39;47.70
62617;BME280;62539;51.190;6.808;2023-04-26T08:17:57;101648.19;;;20.43;47.50
62617;BME280;62539;51.190;6.808;2023-04-26T08:20:23;101652.53;;;20.46;47.50
62617;BME280;62539;51.190;6.808;2023-04-26T08:22:49;101658.59;;;20.48;47.71
62617;BME280;62539;51.190;6.808;2023-04-26T08:25:19;101654.16;;;20.50;47.35
62617;BME280;62539;51.190;6.808;2023-04-26T08:27:45;101654.06;;;20.53;47.38
62617;BME280;62539;51.190;6.808;2023-04-26T08:30:11;101654.81;;;20.56;47.92
62617;BME280;62539;51.190;6.808;2023-04-26T08:32:36;101651.19;;;20.61;48.23
62617;BME280;62539;51.190;6.808;2023-04-26T08:35:02;101658.09;;;20.65;47.76
62617;BME280;62539;51.190;6.808;2023-04-26T08:37:28;101649.25;;;20.67;47.67
62617;BME280;62539;51.190;6.808;2023-04-26T08:39:53;101650.00;;;20.71;48.00
62617;BME280;62539;51.190;6.808;2023-04-26T08:42:19;101650.00;;;20.71;47.95
62617;BME280;62539;51.190;6.808;2023-04-26T08:44:49;101661.38;;;20.73;48.27
62617;BME280;62539;51.190;6.808;2023-04-26T08:47:39;101653.47;;;20.73;48.11
62617;BME280;62539;51.190;6.808;2023-04-26T08:50:10;101651.66;;;20.75;47.73
62617;BME280;62539;51.190;6.808;2023-04-26T08:52:38;101649.91;;;20.76;47.99
62617;BME280;62539;51.190;6.808;2023-04-26T08:55:06;101648.94;;;20.78;48.12
62617;BME280;62539;51.190;6.808;2023-04-26T08:57:34;101648.91;;;20.80;48.16
62617;BME280;62539;51.190;6.808;2023-04-26T09:00:04;101657.59;;;20.83;48.27
62617;BME280;62539;51.190;6.808;2023-04-26T09:02:31;101653.94;;;20.88;48.22
62617;BME280;62539;51.190;6.808;2023-04-26T09:04:57;101657.41;;;20.90;48.18
62617;BME280;62539;51.190;6.808;2023-04-26T09:10:26;101656.38;;;20.95;48.20
62617;BME280;62539;51.190;6.808;2023-04-26T09:12:52;101658.94;;;20.97;48.48
62617;BME280;62539;51.190;6.808;2023-04-26T09:15:20;101655.41;;;20.98;48.54
62617;BME280;62539;51.190;6.808;2023-04-26T09:17:47;101651.84;;;20.99;48.60
62617;BME280;62539;51.190;6.808;2023-04-26T09:22:45;101656.19;;;21.02;48.03
62617;BME280;62539;51.190;6.808;2023-04-26T09:25:11;101655.19;;;21.06;48.42
62617;BME280;62539;51.190;6.808;2023-04-26T09:27:39;101653.28;;;21.09;48.31
62617;BME280;62539;51.190;6.808;2023-04-26T09:30:08;101649.72;;;21.12;48.40
62617;BME280;62539;51.190;6.808;2023-04-26T09:35:24;101645.25;;;21.14;48.74
62617;BME280;62539;51.190;6.808;2023-04-26T09:37:58;101648.72;;;21.14;48.71
62617;BME280;62539;51.190;6.808;2023-04-26T09:40:24;101642.59;;;21.14;48.58
62617;BME280;62539;51.190;6.808;2023-04-26T09:43:10;101636.41;;;21.15;48.68
62617;BME280;62539;51.190;6.808;2023-04-26T09:45:53;101637.25;;;21.15;49.03
62617;BME280;62539;51.190;6.808;2023-04-26T09:48:27;101636.31;;;21.18;48.67
62617;BME280;62539;51.190;6.808;2023-04-26T09:51:09;101635.34;;;21.21;48.85
62617;BME280;62539;51.190;6.808;2023-04-26T09:53:41;101628.06;;;21.27;48.79
62617;BME280;62539;51.190;6.808;2023-04-26T09:56:17;101633.22;;;21.32;48.69
62617;BME280;62539;51.190;6.808;2023-04-26T10:01:16;101628.69;;;21.36;48.76
62617;BME280;62539;51.190;6.808;2023-04-26T10:03:43;101631.28;;;21.37;48.54
62617;BME280;62539;51.190;6.808;2023-04-26T10:06:11;101622.47;;;21.38;48.83
62617;BME280;62539;51.190;6.808;2023-04-26T10:08:37;101627.63;;;21.41;48.79
62617;BME280;62539;51.190;6.808;2023-04-26T10:11:03;101625.81;;;21.43;48.52
62617;BME280;62539;51.190;6.808;2023-04-26T10:13:31;101627.53;;;21.44;48.53
62617;BME280;62539;51.190;6.808;2023-04-26T10:15:58;101626.66;;;21.44;48.40
62617;BME280;62539;51.190;6.808;2023-04-26T10:18:25;101624.91;;;21.44;48.59
62617;BME280;62539;51.190;6.808;2023-04-26T10:20:53;101628.34;;;21.47;48.76
62617;BME280;62539;51.190;6.808;2023-04-26T10:23:23;101624.69;;;21.51;48.69
62617;BME280;62539;51.190;6.808;2023-04-26T10:25:52;101624.59;;;21.54;48.45
62617;BME280;62539;51.190;6.808;2023-04-26T10:31:04;101621.84;;;21.57;44.26
62617;BME280;62539;51.190;6.808;2023-04-26T10:33:32;101615.66;;;21.31;37.29
62617;BME280;62539;51.190;6.808;2023-04-26T10:38:24;101606.00;;;20.43;34.96
62617;BME280;62539;51.190;6.808;2023-04-26T10:40:50;101615.78;;;20.08;34.86
62617;BME280;62539;51.190;6.808;2023-04-26T10:45:47;101615.78;;;19.38;33.34
62617;BME280;62539;51.190;6.808;2023-04-26T10:48:17;101606.81;;;19.11;34.17
62617;BME280;62539;51.190;6.808;2023-04-26T10:54:08;101613.66;;;19.17;39.60
62617;BME280;62539;51.190;6.808;2023-04-26T10:58:47;101602.75;;;19.68;41.84
62617;BME280;62539;51.190;6.808;2023-04-26T11:03:41;101612.41;;;20.03;42.98
62617;BME280;62539;51.190;6.808;2023-04-26T11:06:09;101606.81;;;20.15;43.55
62617;BME280;62539;51.190;6.808;2023-04-26T11:08:38;101610.00;;;20.26;44.12
62617;BME280;62539;51.190;6.808;2023-04-26T11:11:06;101606.19;;;20.37;44.31
62617;BME280;62539;51.190;6.808;2023-04-26T11:13:39;101597.09;;;20.47;44.45
62617;BME280;62539;51.190;6.808;2023-04-26T11:16:12;101604.75;;;20.56;44.67
62617;BME280;62539;51.190;6.808;2023-04-26T11:18:40;101602.72;;;20.66;44.96
62617;BME280;62539;51.190;6.808;2023-04-26T11:21:07;101606.81;;;20.75;44.89
62617;BME280;62539;51.190;6.808;2023-04-26T11:23:34;101602.22;;;20.83;44.83
62617;BME280;62539;51.190;6.808;2023-04-26T11:26:07;101597.56;;;20.92;45.22
62617;BME280;62539;51.190;6.808;2023-04-26T11:28:34;101595.63;;;20.97;45.31
62617;BME280;62539;51.190;6.808;2023-04-26T11:31:05;101601.59;;;21.04;45.71
62617;BME280;62539;51.190;6.808;2023-04-26T11:33:31;101603.16;;;21.09;45.96
62617;BME280;62539;51.190;6.808;2023-04-26T11:36:01;101598.59;;;21.14;45.77
62617;BME280;62539;51.190;6.808;2023-04-26T11:38:27;101592.28;;;21.20;45.59
62617;BME280;62539;51.190;6.808;2023-04-26T11:40:58;101592.91;;;21.27;45.80
62617;BME280;62539;51.190;6.808;2023-04-26T11:43:38;101589.16;;;21.34;45.90
62617;BME280;62539;51.190;6.808;2023-04-26T11:46:06;101587.13;;;21.42;45.74
62617;BME280;62539;51.190;6.808;2023-04-26T11:48:34;101581.66;;;21.49;45.69
62617;BME280;62539;51.190;6.808;2023-04-26T11:51:05;101580.44;;;21.57;46.03
62617;BME280;62539;51.190;6.808;2023-04-26T11:53:40;101572.19;;;21.68;45.46
62617;BME280;62539;51.190;6.808;2023-04-26T11:56:16;101570.16;;;21.77;44.97
62617;BME280;62539;51.190;6.808;2023-04-26T11:58:47;101567.13;;;21.87;44.64
62617;BME280;62539;51.190;6.808;2023-04-26T12:01:24;101576.38;;;21.99;44.25
62617;BME280;62539;51.190;6.808;2023-04-26T12:03:54;101572.59;;;22.07;43.53
62617;BME280;62539;51.190;6.808;2023-04-26T12:06:41;101572.03;;;22.22;43.03
62617;BME280;62539;51.190;6.808;2023-04-26T12:09:08;101572.66;;;22.29;43.18
62617;BME280;62539;51.190;6.808;2023-04-26T12:11:34;101568.00;;;22.36;42.96
62617;BME280;62539;51.190;6.808;2023-04-26T12:14:00;101574.69;;;22.46;42.78
62617;BME280;62539;51.190;6.808;2023-04-26T12:16:26;101571.63;;;22.57;42.74
62617;BME280;62539;51.190;6.808;2023-04-26T12:18:52;101575.63;;;22.67;42.48
62617;BME280;62539;51.190;6.808;2023-04-26T12:21:19;101582.25;;;22.79;42.37
62617;BME280;62539;51.190;6.808;2023-04-26T12:23:45;101587.16;;;22.88;42.35
62617;BME280;62539;51.190;6.808;2023-04-26T12:26:14;101588.56;;;22.97;42.78
62617;BME280;62539;51.190;6.808;2023-04-26T12:28:40;101586.78;;;22.98;37.48
62617;BME280;62539;51.190;6.808;2023-04-26T12:31:06;101579.50;;;22.81;34.91
62617;BME280;62539;51.190;6.808;2023-04-26T12:33:32;101575.94;;;22.59;33.00
62617;BME280;62539;51.190;6.808;2023-04-26T12:36:08;101576.44;;;22.47;32.49
62617;BME280;62539;51.190;6.808;2023-04-26T12:38:36;101569.28;;;22.49;31.09
62617;BME280;62539;51.190;6.808;2023-04-26T12:41:02;101569.22;;;22.51;30.51
62617;BME280;62539;51.190;6.808;2023-04-26T12:43:27;101572.38;;;22.60;30.79
62617;BME280;62539;51.190;6.808;2023-04-26T12:45:53;101574.09;;;22.61;30.40
62617;BME280;62539;51.190;6.808;2023-04-26T12:48:19;101568.81;;;22.61;31.51
62617;BME280;62539;51.190;6.808;2023-04-26T12:50:44;101570.81;;;22.55;30.89
62617;BME280;62539;51.190;6.808;2023-04-26T12:53:10;101573.06;;;22.42;29.88
62617;BME280;62539;51.190;6.808;2023-04-26T12:55:35;101576.41;;;22.23;29.64
62617;BME280;62539;51.190;6.808;2023-04-26T12:58:01;101564.22;;;21.95;29.86
62617;BME280;62539;51.190;6.808;2023-04-26T13:00:27;101561.53;;;21.71;29.55
62617;BME280;62539;51.190;6.808;2023-04-26T13:02:53;101568.28;;;21.53;29.68
62617;BME280;62539;51.190;6.808;2023-04-26T13:05:18;101564.28;;;21.41;30.15
62617;BME280;62539;51.190;6.808;2023-04-26T13:07:44;101570.69;;;21.34;30.38
62617;BME280;62539;51.190;6.808;2023-04-26T13:10:10;101568.34;;;21.25;29.34
62617;BME280;62539;51.190;6.808;2023-04-26T13:12:37;101569.16;;;21.00;29.05
62617;BME280;62539;51.190;6.808;2023-04-26T13:15:05;101570.28;;;21.20;29.42